ADDS METAR Data INFO
IDs: Format: Raw Decoded Include TAF

Data at: 1951 UTC 15 Dec 2017

KGWB 151935Z AUTO 28011G15KT 10SM -SN BKN024 OVC030 M02/M07 A2989 RMK AO2
KGWB 151915Z AUTO 27015G19KT 7SM -SN BKN022 OVC030 M02/M07 A2988 RMK AO2
KGWB 151855Z AUTO 26011G17KT 10SM -SN SCT020 BKN026 OVC031 M02/M06 A2988 RMK AO2
KGWB 151835Z AUTO 26010KT 7SM -SN SCT018 BKN025 OVC031 M02/M06 A2988 RMK AO2
KGWB 151815Z AUTO 25011G18KT 3SM -SN BKN021 BKN026 OVC031 M02/M06 A2988 RMK AO2
KGWB 151755Z AUTO 25014G19KT 5SM -SN BKN021 BKN026 OVC032 M02/M07 A2988 RMK AO2
KGWB 151735Z AUTO 24012G17KT 10SM BKN021 M02/M07 A2988 RMK AO2
KGWB 151715Z AUTO 25010G18KT 5SM -SN SCT021 M02/M07 A2989 RMK AO2
KGWB 151655Z AUTO 25009G16KT 5SM -SN SCT021 SCT028 BKN048 M02/M07 A2989 RMK AO2
KGWB 151635Z AUTO 25011G15KT 10SM -SN BKN021 BKN029 OVC048 M03/M07 A2990 RMK AO2
KGWB 151615Z AUTO 24008KT 10SM OVC019 M03/M07 A2991 RMK AO2
KGWB 151555Z AUTO 23012G18KT 10SM OVC019 M03/M08 A2991 RMK AO2
KGWB 151535Z AUTO 23010G15KT 10SM OVC021 M03/M08 A2991 RMK AO2
KGWB 151515Z AUTO 23009KT 175V235 10SM OVC024 M03/M08 A2991 RMK AO2
KGWB 151455Z AUTO 22009KT 10SM OVC026 M03/M08 A2991 RMK AO2
KGWB 151435Z AUTO 22007KT 10SM OVC028 M03/M08 A2991 RMK AO2
KGWB 151415Z AUTO 23006KT 10SM OVC028 M04/M09 A2991 RMK AO2
KGWB 151355Z AUTO 22006KT 10SM OVC030 M04/M08 A2991 RMK AO2
KGWB 151335Z AUTO 22006KT 10SM OVC034 M04/M08 A2992 RMK AO2
KGWB 151315Z AUTO 23005KT 10SM OVC034 M04/M09 A2993 RMK AO2
KGWB 151255Z AUTO 23007KT 10SM OVC034 M04/M09 A2993 RMK AO2
KGWB 151235Z AUTO 23005KT 10SM OVC034 M04/M08 A2994 RMK AO2
KGWB 151215Z AUTO 22005KT 10SM OVC034 M04/M08 A2994 RMK AO2
KGWB 151155Z AUTO 23006KT 10SM OVC034 M04/M09 A2995 RMK AO2
KGWB 151135Z AUTO 21005KT 10SM OVC034 M04/M09 A2995 RMK AO2
KGWB 151115Z AUTO 21004KT 10SM BKN034 OVC100 M05/M09 A2995 RMK AO2
KGWB 151055Z AUTO 21004KT 10SM SCT034 OVC100 M05/M10 A2995 RMK AO2
KGWB 151035Z AUTO 20004KT 10SM SCT030 SCT040 OVC100 M06/M10 A2995 RMK AO2
KGWB 151015Z AUTO 20003KT 10SM SCT040 BKN100 M06/M10 A2996 RMK AO2
KGWB 150955Z AUTO 20003KT 10SM OVC100 M06/M10 A2996 RMK AO2
KGWB 150935Z AUTO 19003KT 10SM SCT037 BKN100 M07/M10 A2997 RMK AO2
KGWB 150915Z AUTO 00000KT 10SM BKN037 M06/M10 A2998 RMK AO2
KGWB 150855Z AUTO 00000KT 10SM OVC037 M05/M10 A2999 RMK AO2
KGWB 150835Z AUTO 00000KT 10SM OVC037 M05/M10 A2999 RMK AO2
KGWB 150815Z AUTO 20003KT 10SM OVC039 M05/M10 A3000 RMK AO2
KGWB 150755Z AUTO 00000KT 10SM OVC041 M05/M10 A3000 RMK AO2
KGWB 150735Z AUTO 21003KT 10SM OVC041 M05/M10 A3000 RMK AO2
KGWB 150715Z AUTO 00000KT 10SM OVC041 M06/M10 A3000 RMK AO2
KGWB 150655Z AUTO 00000KT 10SM OVC041 M06/M10 A3001 RMK AO2
KGWB 150635Z AUTO 00000KT 10SM SCT028 SCT033 OVC041 M07/M10 A3001 RMK AO2
KGWB 150615Z AUTO 00000KT 10SM SCT028 OVC037 M06/M11 A3002 RMK AO2
KGWB 150555Z AUTO 00000KT 10SM OVC039 M07/M11 A3003 RMK AO2
KGWB 150535Z AUTO 00000KT 10SM OVC037 M07/M11 A3004 RMK AO2
KGWB 150515Z AUTO 00000KT 10SM OVC037 M07/M11 A3005 RMK AO2
KGWB 150455Z AUTO 00000KT 10SM BKN037 M08/M12 A3005 RMK AO2
KGWB 150435Z AUTO 00000KT 10SM SCT038 M08/M12 A3006 RMK AO2
KGWB 150415Z AUTO 00000KT 10SM SCT042 M07/M12 A3006 RMK AO2
KGWB 150355Z AUTO 00000KT 10SM BKN042 M07/M12 A3007 RMK AO2
KGWB 150335Z AUTO 00000KT 10SM OVC042 M07/M11 A3007 RMK AO2
KGWB 150315Z AUTO 00000KT 10SM OVC042 M07/M11 A3007 RMK AO2
KGWB 150255Z AUTO 00000KT 10SM OVC044 M07/M12 A3007 RMK AO2
KGWB 150235Z AUTO 00000KT 10SM OVC044 M07/M12 A3007 RMK AO2
KGWB 150215Z AUTO 00000KT 10SM OVC046 M07/M12 A3007 RMK AO2
KGWB 150200Z AUTO 00000KT 10SM BKN046 M07/M13 A3007 RMK AO2
KGWB 150135Z AUTO 00000KT 10SM BKN046 M07/M13 A3008 RMK AO2
KGWB 150115Z AUTO 00000KT 10SM OVC044 M07/M13 A3008 RMK AO2
KGWB 150055Z AUTO 00000KT 10SM OVC044 M07/M13 A3008 RMK AO2
KGWB 150035Z AUTO 00000KT 10SM OVC044 M07/M12 A3008 RMK AO2
KGWB 150015Z AUTO 00000KT 10SM OVC044 M08/M12 A3008 RMK AO2
KGWB 142355Z AUTO 00000KT 10SM SCT044 M08/M12 A3008 RMK AO2
KGWB 142335Z AUTO 00000KT 10SM CLR M08/M12 A3008 RMK AO2
KGWB 142315Z AUTO 00000KT 10SM CLR M08/M12 A3008 RMK AO2
KGWB 142255Z AUTO 00000KT 10SM CLR M08/M11 A3007 RMK AO2
KGWB 142235Z AUTO 00000KT 10SM CLR M07/M12 A3007 RMK AO2
KGWB 142215Z AUTO 00000KT 10SM CLR M06/M13 A3006 RMK AO2
KGWB 142155Z AUTO 00000KT 10SM CLR M06/M13 A3006 RMK AO2
KGWB 142135Z AUTO 00000KT 10SM CLR M05/M13 A3005 RMK AO2
KGWB 142115Z AUTO 00000KT 10SM CLR M05/M13 A3004 RMK AO2
KGWB 142055Z AUTO 00000KT 10SM CLR M05/M13 A3003 RMK AO2
KGWB 142035Z AUTO 00000KT 10SM CLR M05/M13 A3003 RMK AO2
KGWB 142015Z AUTO 00000KT 10SM CLR M04/M13 A3003 RMK AO2
KGWB 141955Z AUTO 00000KT 10SM CLR M03/M13 A3003 RMK AO2
KGWB 141935Z AUTO 00000KT 10SM CLR M04/M14 A3004 RMK AO2
KGWB 141915Z AUTO 00000KT 10SM CLR M04/M15 A3004 RMK AO2
KGWB 141855Z AUTO 00000KT 10SM CLR M04/M15 A3004 RMK AO2
KGWB 141835Z AUTO 00000KT 10SM CLR M05/M15 A3003 RMK AO2
KGWB 141815Z AUTO 00000KT 10SM CLR M05/M14 A3003 RMK AO2
KGWB 141755Z AUTO 00000KT 10SM CLR M05/M14 A3004 RMK AO2
KGWB 141735Z AUTO 09003KT 10SM CLR M05/M13 A3005 RMK AO2
KGWB 141715Z AUTO 08003KT 10SM CLR M05/M13 A3005 RMK AO2
KGWB 141655Z AUTO 05004KT 10SM CLR M06/M13 A3005 RMK AO2
KGWB 141635Z AUTO 02004KT 10SM CLR M06/M13 A3006 RMK AO2
KGWB 141615Z AUTO 02004KT 10SM CLR M07/M14 A3006 RMK AO2
KGWB 141555Z AUTO 02003KT 10SM CLR M07/M14 A3005 RMK AO2
KGWB 141535Z AUTO 01004KT 10SM CLR M07/M13 A3005 RMK AO2
KGWB 141515Z AUTO 36003KT 10SM CLR M08/M13 A3004 RMK AO2
KGWB 141455Z AUTO 00000KT 10SM CLR M09/M13 A3003 RMK AO2
KGWB 141435Z AUTO 35004KT 10SM CLR M10/M13 A3002 RMK AO2
KGWB 141415Z AUTO 33004KT 10SM CLR M10/M13 A3001 RMK AO2
KGWB 141355Z AUTO 33004KT 10SM CLR M11/M13 A2999 RMK AO2
KGWB 141335Z AUTO 32004KT 10SM CLR M11/M13 A2998 RMK AO2
KGWB 141315Z AUTO 32005KT 10SM CLR M11/M13 A2997 RMK AO2
KGWB 141255Z AUTO 33005KT 10SM CLR M10/M13 A2996 RMK AO2
KGWB 141235Z AUTO 33006KT 10SM CLR M10/M13 A2995 RMK AO2
KGWB 141215Z AUTO 32008KT 10SM CLR M10/M12 A2994 RMK AO2
KGWB 141155Z AUTO 32007KT 10SM CLR M09/M12 A2993 RMK AO2
KGWB 141135Z AUTO 33008KT 10SM CLR M08/M12 A2992 RMK AO2
KGWB 141115Z AUTO 33007KT 10SM CLR M08/M11 A2990 RMK AO2
KGWB 141055Z AUTO 33006KT 10SM CLR M08/M11 A2988 RMK AO2
KGWB 141035Z AUTO 32005KT 10SM CLR M07/M11 A2986 RMK AO2
KGWB 141015Z AUTO 34007KT 10SM SCT019 M07/M10 A2985 RMK AO2
KGWB 140955Z AUTO 35008G16KT 10SM OVC017 M06/M10 A2985 RMK AO2
KGWB 140935Z AUTO 34011KT 10SM OVC017 M06/M10 A2984 RMK AO2
KGWB 140915Z AUTO 32006KT 10SM OVC015 M06/M09 A2983 RMK AO2
KGWB 140855Z AUTO 35007KT 10SM OVC015 M06/M09 A2982 RMK AO2
KGWB 140835Z AUTO 33009KT 10SM OVC015 M06/M09 A2980 RMK AO2
KGWB 140815Z AUTO 34010G14KT 10SM OVC015 M06/M09 A2978 RMK AO2
KGWB 140755Z AUTO 33011G15KT 10SM OVC015 M06/M09 A2977 RMK AO2